Time;durP1;ratioP1;P1;durP2;ratioP2;P2;SDS_P1;SDS_P2;PMS_P1;PMS_P2;Temp;Humidity;BMP_temperature;BMP_pressure;BME280_temperature;BME280_humidity;BME280_pressure;Samples;Min_cycle;Max_cycle;Signal;HPM_P1;HPM_P2
2022/05/02 00:00:44;;;;;;;24.50;12.60;;;;;;;10.29;41.30;99162.79;105557;1281;97885;-69
2022/05/02 00:03:13;;;;;;;23.70;11.70;;;;;;;10.27;41.32;99160.42;105559;1281;111371;-69
2022/05/02 00:05:44;;;;;;;23.90;12.10;;;;;;;10.24;41.39;99157.93;105162;1283;97955;-69
2022/05/02 00:08:12;;;;;;;25.00;12.40;;;;;;;10.23;41.52;99158.21;105535;1283;108116;-68
2022/05/02 00:10:40;;;;;;;24.30;12.00;;;;;;;10.21;41.56;99159.73;105525;1282;96249;-65
2022/05/02 00:13:09;;;;;;;23.90;11.90;;;;;;;10.20;41.64;99160.04;105513;1282;97965;-64
2022/05/02 00:15:39;;;;;;;25.40;12.30;;;;;;;10.17;41.74;99163.94;105566;1282;111798;-65
2022/05/02 00:18:08;;;;;;;30.00;12.10;;;;;;;10.14;41.87;99163.98;105609;1281;97889;-65
2022/05/02 00:20:39;;;;;;;23.10;12.30;;;;;;;10.11;41.90;99166.67;105558;1282;107954;-66
2022/05/02 00:23:09;;;;;;;26.20;13.00;;;;;;;10.08;42.02;99166.54;105552;1281;98071;-66
2022/05/02 00:25:39;;;;;;;23.70;12.20;;;;;;;10.03;42.07;99162.25;105601;1281;96450;-67
2022/05/02 00:28:13;;;;;;;24.10;12.10;;;;;;;9.99;42.09;99162.92;105596;1281;112049;-72
2022/05/02 00:30:43;;;;;;;27.30;11.90;;;;;;;9.92;42.21;99162.30;105526;1281;97866;-71
2022/05/02 00:33:13;;;;;;;24.00;13.10;;;;;;;9.88;42.28;99165.25;105618;1281;108347;-68
2022/05/02 00:35:41;;;;;;;25.30;12.60;;;;;;;9.83;42.35;99163.96;105701;1281;95308;-70
2022/05/02 00:38:10;;;;;;;24.20;13.10;;;;;;;9.78;42.28;99165.02;105691;1281;97997;-69
2022/05/02 00:40:39;;;;;;;23.30;12.60;;;;;;;9.70;42.37;99168.55;105688;1281;112080;-69
2022/05/02 00:43:07;;;;;;;23.30;11.10;;;;;;;9.66;42.52;99167.55;105678;1283;97757;-70
2022/05/02 00:45:38;;;;;;;26.80;12.30;;;;;;;9.63;42.43;99170.41;105645;1281;108182;-70
2022/05/02 00:48:07;;;;;;;25.70;12.90;;;;;;;9.61;42.49;99169.17;105700;1284;97979;-68
2022/05/02 00:50:40;;;;;;;24.00;12.10;;;;;;;9.57;42.55;99167.10;105597;1281;98412;-69
2022/05/02 00:53:13;;;;;;;25.20;12.90;;;;;;;9.52;42.64;99167.30;105521;1283;111415;-68
2022/05/02 00:55:42;;;;;;;;;;;;;;;9.48;42.73;99168.80;105601;1283;95365;-68
2022/05/02 00:58:16;;;;;;;25.50;12.40;;;;;;;9.42;42.89;99168.29;105465;1284;108299;-65
2022/05/02 01:00:45;;;;;;;24.50;12.90;;;;;;;9.39;42.61;99170.27;105542;1284;98589;-66
2022/05/02 01:03:14;;;;;;;26.80;13.60;;;;;;;9.34;42.78;99168.27;105558;1283;96306;-64
2022/05/02 01:08:37;;;;;;;27.40;13.00;;;;;;;9.25;43.04;99164.45;105459;1284;95411;-67
2022/05/02 01:11:05;;;;;;;25.00;13.20;;;;;;;9.20;42.85;99163.85;105541;1281;106318;-64
2022/05/02 01:13:48;;;;;;;23.70;12.50;;;;;;;9.15;42.92;99161.20;105545;1283;97937;-66
2022/05/02 01:16:22;;;;;;;26.50;13.40;;;;;;;9.09;43.15;99159.65;105506;1284;97852;-68
2022/05/02 01:18:54;;;;;;;25.20;13.20;;;;;;;9.05;43.15;99165.21;105482;1283;111283;-66
2022/05/02 01:21:26;;;;;;;27.90;14.20;;;;;;;9.02;43.19;99165.41;105597;1284;98000;-66
2022/05/02 01:24:04;;;;;;;27.80;13.60;;;;;;;8.97;43.14;99165.71;105598;1283;107532;-65
2022/05/02 01:26:33;;;;;;;26.10;13.70;;;;;;;8.89;43.46;99164.59;105527;1283;96426;-69
2022/05/02 01:29:02;;;;;;;24.70;13.50;;;;;;;8.86;43.36;99161.11;105539;1284;97876;-66
2022/05/02 01:31:31;;;;;;;28.50;14.50;;;;;;;8.81;43.52;99158.40;105513;1284;111459;-68
2022/05/02 01:34:02;;;;;;;27.00;15.30;;;;;;;8.78;43.67;99161.77;105491;1284;95698;-69
2022/05/02 01:36:30;;;;;;;27.80;15.20;;;;;;;8.78;43.85;99157.70;105531;1283;107791;-67
2022/05/02 01:38:58;;;;;;;27.30;15.50;;;;;;;8.80;43.88;99156.55;105536;1283;98122;-68
2022/05/02 01:41:27;;;;;;;27.80;15.90;;;;;;;8.80;43.91;99154.05;105541;1284;97985;-66
2022/05/02 01:43:55;;;;;;;27.60;14.90;;;;;;;8.78;43.91;99150.96;105560;1283;110110;-69
2022/05/02 01:46:23;;;;;;;25.80;13.60;;;;;;;8.79;44.03;99154.64;105499;1283;95235;-69
2022/05/02 01:48:52;;;;;;;24.30;13.50;;;;;;;8.80;44.04;99154.95;105581;1284;108446;-69
2022/05/02 01:51:21;;;;;;;25.20;14.10;;;;;;;8.80;44.29;99159.70;105562;1284;96671;-68
2022/05/02 01:53:51;;;;;;;25.50;14.00;;;;;;;8.81;44.16;99161.45;105294;1284;97965;-65
2022/05/02 01:56:20;;;;;;;26.50;14.00;;;;;;;8.80;44.39;99165.21;105551;1284;112534;-65
2022/05/02 01:58:47;;;;;;;23.10;11.70;;;;;;;8.80;44.56;99168.19;105441;1284;97939;-67
2022/05/02 02:01:18;;;;;;;24.80;13.20;;;;;;;8.81;44.30;99168.85;105460;1283;108374;-68
2022/05/02 02:03:48;;;;;;;27.60;13.40;;;;;;;8.79;44.50;99165.62;105490;1284;96566;-68
2022/05/02 02:06:18;;;;;;;24.90;13.40;;;;;;;8.78;44.61;99165.30;105624;1284;97895;-69
2022/05/02 02:08:46;;;;;;;24.80;13.10;;;;;;;8.77;44.66;99165.52;105636;1284;111716;-69
2022/05/02 02:11:14;;;;;;;22.30;11.90;;;;;;;8.76;44.76;99163.84;105605;1284;97883;-67
2022/05/02 02:13:46;;;;;;;24.40;13.50;;;;;;;8.76;44.79;99161.80;105615;1284;108575;-69
2022/05/02 02:16:15;;;;;;;27.30;13.70;;;;;;;8.74;44.99;99159.95;105618;1284;97992;-70
2022/05/02 02:18:43;;;;;;;29.50;13.40;;;;;;;8.72;44.88;99161.52;105571;1284;97895;-68
2022/05/02 02:21:12;;;;;;;24.40;12.60;;;;;;;8.70;45.02;99159.12;105562;1283;111484;-68
2022/05/02 02:23:43;;;;;;;24.00;12.80;;;;;;;8.71;45.12;99161.41;105630;1284;97962;-68
2022/05/02 02:26:10;;;;;;;24.20;12.90;;;;;;;8.71;45.19;99158.90;105624;1284;107778;-68
2022/05/02 02:28:40;;;;;;;25.60;13.20;;;;;;;8.72;45.39;99155.29;105575;1283;97991;-69
2022/05/02 02:31:09;;;;;;;25.00;13.00;;;;;;;8.73;45.32;99153.14;105638;1284;97896;-68
2022/05/02 02:33:39;;;;;;;25.80;14.10;;;;;;;8.74;45.36;99155.67;105636;1284;111903;-67
2022/05/02 02:36:09;;;;;;;26.70;12.70;;;;;;;8.75;45.57;99158.11;105611;1284;97978;-68
2022/05/02 02:38:38;;;;;;;24.90;13.20;;;;;;;8.76;45.36;99156.27;105576;1283;108583;-66
2022/05/02 02:41:05;;;;;;;25.60;12.80;;;;;;;8.77;45.60;99156.73;105529;1284;96291;-69
2022/05/02 02:43:35;;;;;;;24.50;12.80;;;;;;;8.78;45.54;99156.28;105568;1284;97903;-68
2022/05/02 02:46:04;;;;;;;25.60;13.00;;;;;;;8.79;45.80;99151.80;105566;1284;111631;-67
2022/05/02 02:48:35;;;;;;;25.70;13.70;;;;;;;8.80;45.75;99153.16;105584;1283;95210;-66
2022/05/02 02:51:04;;;;;;;23.70;13.30;;;;;;;8.81;45.97;99154.38;105595;1284;108319;-69
2022/05/02 02:53:32;;;;;;;24.90;13.50;;;;;;;8.81;45.98;99153.65;105626;1283;97978;-66
2022/05/02 02:56:01;;;;;;;26.80;14.10;;;;;;;8.80;45.92;99156.70;105680;1283;97888;-68
2022/05/02 02:58:29;;;;;;;28.40;15.50;;;;;;;8.75;45.66;99159.13;105481;1284;111994;-67
2022/05/02 03:00:58;;;;;;;30.50;18.00;;;;;;;8.60;45.32;99158.64;105601;1283;97621;-68
2022/05/02 03:03:30;;;;;;;28.10;16.20;;;;;;;8.45;45.60;99159.55;105578;1284;108450;-68
2022/05/02 03:06:01;;;;;;;29.80;15.90;;;;;;;8.39;45.78;99161.21;105584;1284;96398;-68
2022/05/02 03:08:34;;;;;;;30.10;16.80;;;;;;;8.34;45.80;99162.92;105601;1283;96600;-68
2022/05/02 03:11:04;;;;;;;27.40;16.10;;;;;;;8.29;46.30;99164.44;105602;1283;111800;-66
2022/05/02 03:13:34;;;;;;;29.90;15.40;;;;;;;8.31;46.24;99165.06;105628;1283;97717;-66
2022/05/02 03:16:05;;;;;;;26.50;14.80;;;;;;;8.34;46.44;99161.98;105579;1283;108385;-66
2022/05/02 03:18:34;;;;;;;24.60;14.70;;;;;;;8.39;46.80;99162.81;105575;1283;98079;-67
2022/05/02 03:21:04;;;;;;;28.50;16.10;;;;;;;8.44;46.70;99159.29;105613;1283;95283;-67
2022/05/02 03:23:33;;;;;;;29.70;16.30;;;;;;;8.49;46.81;99157.38;105611;1283;112073;-70
2022/05/02 03:26:02;;;;;;;27.40;15.70;;;;;;;8.55;47.06;99158.13;105651;1283;97968;-72
2022/05/02 03:28:30;;;;;;;30.00;15.80;;;;;;;8.60;46.91;99159.59;105595;1284;107502;-68
2022/05/02 03:30:58;;;;;;;28.40;15.00;;;;;;;8.64;47.08;99163.22;105596;1283;97888;-66
2022/05/02 03:33:27;;;;;;;27.90;14.30;;;;;;;8.68;47.22;99165.62;105621;1283;97920;-66
2022/05/02 03:35:57;;;;;;;29.80;14.50;;;;;;;8.71;47.21;99164.39;105613;1283;112146;-67
2022/05/02 03:38:25;;;;;;;26.90;15.60;;;;;;;8.73;47.34;99168.09;105638;1283;98012;-67
2022/05/02 03:40:54;;;;;;;28.30;15.80;;;;;;;8.75;47.23;99165.13;105617;1283;108335;-68
2022/05/02 03:43:22;;;;;;;26.70;15.80;;;;;;;8.74;47.26;99162.73;104709;1283;1231365;-68
2022/05/02 03:45:50;;;;;;;26.60;15.20;;;;;;;8.74;47.38;99165.55;105633;1283;97987;-68
2022/05/02 03:48:18;;;;;;;27.30;15.80;;;;;;;8.74;47.28;99167.16;105585;1283;112061;-66
2022/05/02 03:50:46;;;;;;;28.00;15.00;;;;;;;8.79;47.57;99169.35;105617;1283;98016;-67
2022/05/02 03:53:17;;;;;;;25.60;14.70;;;;;;;8.83;47.71;99167.67;105602;1283;108089;-68
2022/05/02 03:55:47;;;;;;;27.60;15.00;;;;;;;8.87;47.59;99166.58;105574;1283;97880;-68
2022/05/02 03:58:15;;;;;;;29.20;14.30;;;;;;;8.89;47.76;99169.19;105641;1283;97873;-67
2022/05/02 04:00:43;;;;;;;27.70;15.40;;;;;;;8.93;47.87;99167.36;105624;1283;112027;-68
2022/05/02 04:03:14;;;;;;;29.50;16.20;;;;;;;8.97;47.89;99169.63;105614;1283;97883;-68
2022/05/02 04:05:42;;;;;;;27.00;15.50;;;;;;;8.99;48.13;99170.36;105563;1283;108865;-66
2022/05/02 04:08:12;;;;;;;29.70;15.20;;;;;;;9.03;48.06;99172.44;105638;1283;95322;-69
2022/05/02 04:10:42;;;;;;;26.70;15.30;;;;;;;9.06;48.19;99178.25;105610;1283;97837;-68
2022/05/02 04:13:12;;;;;;;26.00;15.20;;;;;;;9.09;48.15;99174.70;105643;1283;112091;-67
2022/05/02 04:15:42;;;;;;;28.00;15.20;;;;;;;9.12;48.06;99178.07;105601;1283;97871;-68
2022/05/02 04:18:11;;;;;;;26.20;14.80;;;;;;;9.09;47.70;99181.77;105503;1283;107400;-68
2022/05/02 04:20:39;;;;;;;24.80;14.80;;;;;;;8.94;47.50;99176.71;105202;1283;97918;-67
2022/05/02 04:23:07;;;;;;;26.70;14.80;;;;;;;8.75;47.72;99180.04;105517;1283;97912;-67
2022/05/02 04:25:35;;;;;;;25.90;14.70;;;;;;;8.61;48.09;99181.77;105476;1284;112078;-70
2022/05/02 04:28:07;;;;;;;26.00;14.50;;;;;;;8.58;48.51;99186.38;105553;1283;97987;-70
2022/05/02 04:30:37;;;;;;;27.70;15.40;;;;;;;8.66;48.62;99183.58;105482;1283;108536;-69
2022/05/02 04:33:07;;;;;;;25.70;13.40;;;;;;;8.75;48.69;99182.48;105522;1283;98082;-69
2022/05/02 04:35:36;;;;;;;25.30;14.40;;;;;;;8.81;48.67;99185.10;105506;1283;95194;-66
2022/05/02 04:38:07;;;;;;;28.30;15.20;;;;;;;8.88;48.70;99186.59;105491;1283;113164;-68
2022/05/02 04:40:34;;;;;;;27.40;15.40;;;;;;;8.95;48.87;99186.52;105455;1283;96270;-68
2022/05/02 04:43:04;;;;;;;27.50;15.20;;;;;;;9.02;48.96;99183.95;105503;1283;108733;-68
2022/05/02 04:45:33;;;;;;;26.20;14.60;;;;;;;9.11;48.99;99183.39;105407;1284;95326;-68
2022/05/02 04:48:01;;;;;;;26.60;14.60;;;;;;;9.20;49.00;99182.30;105489;1283;97857;-67
2022/05/02 04:50:30;;;;;;;27.50;14.20;;;;;;;9.25;49.03;99182.13;105550;1283;112703;-68
2022/05/02 04:52:58;;;;;;;25.70;13.90;;;;;;;9.28;49.13;99181.94;105512;1283;97985;-67
2022/05/02 04:55:27;;;;;;;26.40;14.60;;;;;;;9.30;48.85;99179.67;105508;1283;108498;-68
2022/05/02 04:57:56;;;;;;;25.30;14.70;;;;;;;9.31;49.00;99184.38;105467;1282;97980;-67
2022/05/02 05:00:25;;;;;;;28.20;14.90;;;;;;;9.35;49.28;99183.42;105456;1283;97960;-67
2022/05/02 05:02:53;;;;;;;25.90;15.10;;;;;;;9.44;49.41;99183.59;105466;1283;111864;-70
2022/05/02 05:05:28;;;;;;;28.10;15.60;;;;;;;9.56;49.70;99183.50;105440;1283;96401;-68
2022/05/02 05:07:56;;;;;;;26.40;15.30;;;;;;;9.68;49.57;99190.11;105494;1283;108294;-68
2022/05/02 05:10:24;;;;;;;25.30;14.60;;;;;;;9.80;49.70;99191.09;105481;1283;98041;-68
2022/05/02 05:13:08;;;;;;;26.60;14.50;;;;;;;9.92;49.88;99194.55;105502;1283;98623;-68
2022/05/02 05:18:42;;;;;;;27.90;15.50;;;;;;;10.16;50.08;99191.19;105462;1283;97893;-68
2022/05/02 05:21:38;;;;;;;30.00;14.60;;;;;;;10.26;49.97;99191.34;105482;1283;108387;-69
2022/05/02 05:24:07;;;;;;;28.10;15.50;;;;;;;10.39;50.02;99190.81;105474;1283;98012;-67
2022/05/02 05:27:02;;;;;;;26.10;14.80;;;;;;;10.50;50.02;99190.97;105405;1283;96462;-68
2022/05/02 05:29:36;;;;;;;27.40;15.20;;;;;;;10.64;50.04;99189.98;105278;1283;112043;-69
2022/05/02 05:32:16;;;;;;;26.40;15.20;;;;;;;10.76;50.07;99185.41;105321;1283;97753;-69
2022/05/02 05:35:00;;;;;;;24.80;14.70;;;;;;;10.89;50.16;99185.55;105101;1284;109773;-68
2022/05/02 05:37:46;;;;;;;26.60;16.40;;;;;;;11.02;50.14;99188.17;105561;1283;98552;-69
2022/05/02 05:40:29;;;;;;;26.00;14.90;;;;;;;11.16;50.26;99186.61;105390;1283;97947;-69
2022/05/02 05:43:24;;;;;;;23.70;13.40;;;;;;;11.30;50.30;99186.68;105236;1283;111980;-70
2022/05/02 05:46:05;;;;;;;25.00;13.20;;;;;;;11.44;50.33;99185.10;105855;1282;98002;-69
2022/05/02 05:48:57;;;;;;;25.00;13.60;;;;;;;11.58;50.24;99182.48;105698;1282;107791;-68
2022/05/02 05:51:51;;;;;;;24.70;12.70;;;;;;;11.73;50.30;99186.30;105333;1283;97921;-68
2022/05/02 05:54:41;;;;;;;22.70;12.40;;;;;;;11.88;50.22;99190.85;107057;1282;95782;-68
2022/05/02 05:57:20;;;;;;;31.30;18.70;;;;;;;12.01;50.20;99190.78;105602;1282;111307;-69
2022/05/02 06:00:00;;;;;;;41.40;27.80;;;;;;;12.15;50.16;99193.29;105529;1283;97880;-68
2022/05/02 06:03:13;;;;;;;28.10;15.40;;;;;;;12.29;50.28;99190.09;105410;1283;107838;-69
2022/05/02 06:05:45;;;;;;;24.90;12.90;;;;;;;12.43;50.06;99188.27;104900;1284;95964;-68
2022/05/02 06:08:22;;;;;;;23.80;13.00;;;;;;;12.55;50.13;99192.88;105584;1282;98075;-69
2022/05/02 06:10:51;;;;;;;26.30;13.00;;;;;;;12.66;50.15;99192.02;105625;1283;111446;-73
2022/05/02 06:13:21;;;;;;;24.20;13.50;;;;;;;12.77;50.19;99189.55;105552;1283;97746;-70
2022/05/02 06:19:00;;;;;;;22.30;12.10;;;;;;;13.02;50.22;99191.67;105413;1283;98072;-70
2022/05/02 06:21:28;;;;;;;23.70;11.50;;;;;;;13.13;50.29;99193.64;105387;1282;98097;-69
2022/05/02 06:24:01;;;;;;;23.70;12.70;;;;;;;13.23;50.20;99190.67;105519;1283;111985;-69
2022/05/02 06:26:29;;;;;;;24.20;11.40;;;;;;;13.33;50.23;99191.30;105528;1282;95971;-69
2022/05/02 06:28:56;;;;;;;24.80;11.80;;;;;;;13.42;50.17;99183.86;105413;1283;108586;-70
2022/05/02 06:31:28;;;;;;;24.50;11.40;;;;;;;13.50;50.15;99186.67;105411;1283;96881;-68
2022/05/02 06:34:00;;;;;;;23.60;11.40;;;;;;;13.59;50.07;99185.06;105451;1282;96403;-69
2022/05/02 06:37:06;;;;;;;24.10;11.50;;;;;;;13.68;49.97;99182.37;105447;1283;111393;-70
2022/05/02 06:39:56;;;;;;;23.80;11.20;;;;;;;13.80;49.98;99182.80;105440;1283;96239;-69
2022/05/02 06:42:39;;;;;;;23.70;11.00;;;;;;;13.96;49.93;99181.66;105418;1283;108462;-70
2022/05/02 06:45:22;;;;;;;20.60;10.20;;;;;;;14.13;49.89;99185.36;105549;1283;97905;-69
2022/05/02 06:48:23;;;;;;;20.90;9.70;;;;;;;14.29;49.96;99184.94;105692;1283;95200;-70
2022/05/02 06:51:00;;;;;;;22.20;8.50;;;;;;;14.42;49.93;99185.23;105724;1281;112007;-66
2022/05/02 06:53:31;;;;;;;21.30;9.20;;;;;;;14.56;49.81;99184.52;105631;1281;97875;-69
2022/05/02 06:56:18;;;;;;;23.50;9.30;;;;;;;14.68;49.72;99183.69;105440;1283;107399;-69
2022/05/02 06:59:20;;;;;;;19.30;8.40;;;;;;;14.80;49.62;99177.48;105385;1283;99689;-69
2022/05/02 07:01:53;;;;;;;17.30;7.50;;;;;;;14.92;49.50;99179.48;105429;1282;97891;-69
2022/05/02 07:04:33;;;;;;;21.50;8.30;;;;;;;15.01;49.28;99177.09;105474;1283;111460;-71
2022/05/02 07:07:25;;;;;;;17.60;6.60;;;;;;;15.96;48.08;99178.25;105375;1283;97906;-68
2022/05/02 07:10:05;;;;;;;15.60;6.00;;;;;;;18.11;46.81;99171.10;105587;1281;108476;-68
2022/05/02 07:12:51;;;;;;;15.80;5.90;;;;;;;19.91;46.74;99173.64;105436;1283;97923;-67
2022/05/02 07:15:24;;;;;;;15.50;6.10;;;;;;;21.83;46.43;99171.41;105450;1281;95735;-69
2022/05/02 07:18:22;;;;;;;16.00;6.70;;;;;;;23.53;46.59;99170.98;105491;1283;111058;-68
2022/05/02 07:21:02;;;;;;;14.50;5.40;;;;;;;25.26;45.80;99169.55;105540;1281;97919;-69
2022/05/02 07:23:43;;;;;;;19.10;5.80;;;;;;;26.64;45.55;99170.40;105394;1283;108351;-70
2022/05/02 07:26:18;;;;;;;12.10;5.20;;;;;;;28.01;45.17;99168.23;105454;1283;96444;-77
2022/05/02 07:28:51;;;;;;;13.30;5.60;;;;;;;29.18;44.93;99167.33;105525;1281;97975;-71
2022/05/02 07:31:21;;;;;;;15.50;7.30;;;;;;;30.21;44.61;99165.55;105485;1283;112150;-72
2022/05/02 07:33:53;;;;;;;12.70;6.20;;;;;;;31.16;44.21;99165.00;105440;1283;97905;-71
2022/05/02 07:36:23;;;;;;;14.00;6.10;;;;;;;31.71;43.57;99166.40;105567;1281;107755;-72
2022/05/02 07:39:08;;;;;;;11.70;5.30;;;;;;;32.31;43.49;99169.35;105636;1281;98034;-70
2022/05/02 07:41:40;;;;;;;11.40;5.20;;;;;;;33.09;42.78;99176.02;105552;1283;97853;-72
2022/05/02 07:44:13;;;;;;;8.60;5.00;;;;;;;33.58;42.68;99171.97;105581;1281;112477;-71
2022/05/02 07:46:49;;;;;;;12.10;6.30;;;;;;;33.71;42.21;99175.23;105313;1284;98465;-71
2022/05/02 07:49:28;;;;;;;11.90;5.70;;;;;;;34.30;41.74;99174.16;105579;1281;107751;-70
2022/05/02 07:52:00;;;;;;;11.30;5.00;;;;;;;34.85;41.06;99173.98;105430;1283;97917;-69
2022/05/02 07:54:36;;;;;;;13.10;5.00;;;;;;;35.34;40.46;99171.11;105264;1283;96463;-69
2022/05/02 07:57:05;;;;;;;8.40;4.50;;;;;;;36.00;40.16;99166.63;105094;1283;111466;-71
2022/05/02 07:59:38;;;;;;;13.00;6.00;;;;;;;36.55;39.61;99164.95;105125;1283;98448;-70
2022/05/02 08:02:10;;;;;;;15.00;7.80;;;;;;;36.88;38.74;99165.84;105279;1283;109033;-70
2022/05/02 08:04:40;;;;;;;12.60;5.80;;;;;;;37.16;38.15;99167.66;105298;1283;97916;-68
2022/05/02 08:07:12;;;;;;;12.40;5.90;;;;;;;37.33;37.72;99166.83;105306;1281;97882;-70
2022/05/02 08:10:13;;;;;;;12.40;5.90;;;;;;;37.52;37.16;99167.73;105385;1283;111443;-71
2022/05/02 08:12:51;;;;;;;15.70;6.90;;;;;;;37.50;36.59;99166.74;105526;1282;97907;-70
2022/05/02 08:15:25;;;;;;;13.60;5.20;;;;;;;37.79;36.41;99166.35;105576;1281;106447;-70
2022/05/02 08:18:32;;;;;;;8.80;4.70;;;;;;;38.02;35.56;99163.41;105433;1283;96358;-68
2022/05/02 08:21:11;;;;;;;12.50;4.20;;;;;;;38.05;34.91;99161.27;105424;1283;97912;-67
2022/05/02 08:27:31;;;;;;;11.20;4.30;;;;;;;38.27;34.01;99161.42;105403;1284;98384;-71
2022/05/02 08:30:22;;;;;;;11.50;4.60;;;;;;;38.50;33.61;99155.65;105421;1281;108410;-70
2022/05/02 08:33:00;;;;;;;13.50;5.70;;;;;;;38.81;33.10;99154.42;105396;1283;97919;-68
2022/05/02 08:35:59;;;;;;;11.30;4.40;;;;;;;38.95;32.79;99155.00;105323;1282;96290;-68
2022/05/02 08:38:59;;;;;;;12.90;4.80;;;;;;;39.08;32.11;99150.94;105453;1282;112012;-69
2022/05/02 08:41:31;;;;;;;7.40;4.10;;;;;;;39.20;31.85;99145.05;105447;1283;97899;-67
2022/05/02 08:44:37;;;;;;;11.10;4.70;;;;;;;39.20;31.57;99144.69;105394;1283;106800;-67
2022/05/02 08:47:23;;;;;;;6.90;3.80;;;;;;;39.27;30.74;99141.71;105389;1283;97932;-67
2022/05/02 08:50:48;;;;;;;9.30;4.00;;;;;;;39.01;30.20;99138.73;105508;1284;98675;-66
2022/05/02 08:53:37;;;;;;;9.40;3.80;;;;;;;38.51;29.64;99137.64;104545;1291;111999;-67
2022/05/02 08:56:31;;;;;;;7.00;3.60;;;;;;;38.41;29.50;99142.08;104511;1290;99532;-66
2022/05/02 08:59:18;;;;;;;9.50;4.00;;;;;;;38.24;28.79;99138.20;105258;1283;108302;-66
2022/05/02 09:02:11;;;;;;;13.70;4.20;;;;;;;38.13;28.72;99137.52;105447;1283;97982;-69
2022/05/02 09:05:12;;;;;;;7.70;4.30;;;;;;;38.32;28.65;99137.45;105453;1283;97132;-71
2022/05/02 09:07:49;;;;;;;14.60;4.70;;;;;;;38.20;27.73;99130.06;105385;1283;111460;-70
2022/05/02 09:10:53;;;;;;;8.60;4.40;;;;;;;38.04;27.74;99125.47;105498;1282;98367;-70
2022/05/02 09:13:59;;;;;;;7.60;3.80;;;;;;;38.19;27.46;99128.02;105412;1283;107769;-65
2022/05/02 09:16:57;;;;;;;9.90;4.00;;;;;;;38.33;27.29;99124.05;105544;1283;98660;-65
2022/05/02 09:19:26;;;;;;;6.50;4.20;;;;;;;38.15;26.69;99120.51;105663;1283;98339;-66
2022/05/02 09:22:09;;;;;;;5.90;3.80;;;;;;;37.91;26.48;99121.30;105559;1283;112014;-66
2022/05/02 09:24:49;;;;;;;11.40;4.60;;;;;;;37.68;26.23;99123.37;105515;1282;98396;-66
2022/05/02 09:27:51;;;;;;;7.20;3.90;;;;;;;37.52;25.97;99120.35;105469;1283;108651;-66
2022/05/02 09:30:38;;;;;;;;;;;;;;;37.19;25.14;99118.83;105267;1284;98986;-66
2022/05/02 09:33:18;;;;;;;7.50;3.90;;;;;;;36.11;25.11;99113.05;105559;1283;95269;-66
2022/05/02 09:36:04;;;;;;;11.00;3.80;;;;;;;36.12;25.15;99117.59;105430;1282;112114;-68
2022/05/02 09:38:53;;;;;;;10.00;4.00;;;;;;;36.32;25.04;99116.55;105475;1283;98548;-67
2022/05/02 09:41:29;;;;;;;7.00;3.90;;;;;;;36.31;24.87;99111.89;105567;1283;107945;-67
2022/05/02 09:50:31;;;;;;;8.30;3.60;;;;;;;35.91;24.20;99097.01;106694;1281;111408;-68
2022/05/02 09:53:36;;;;;;;9.20;4.00;;;;;;;36.21;24.28;99102.08;106175;1282;97223;-65
2022/05/02 09:56:41;;;;;;;6.30;3.90;;;;;;;35.92;23.95;99095.58;106997;1282;108915;-67
2022/05/02 09:59:26;;;;;;;10.90;3.80;;;;;;;35.18;23.82;99091.73;105490;1283;98002;-68
2022/05/02 10:01:57;;;;;;;9.40;4.20;;;;;;;34.40;23.65;99090.08;105405;1283;96441;-69
2022/05/02 10:05:08;;;;;;;12.20;4.30;;;;;;;33.78;23.65;99091.16;105567;1283;112132;-67
2022/05/02 10:08:11;;;;;;;9.30;4.10;;;;;;;33.17;23.22;99085.66;105254;1283;95742;-71
2022/05/02 10:11:10;;;;;;;8.50;3.90;;;;;;;32.32;22.74;99085.64;106317;1283;108409;-68
2022/05/02 10:14:00;;;;;;;8.90;4.40;;;;;;;31.74;23.01;99080.39;105490;1283;97983;-69
2022/05/02 10:16:34;;;;;;;12.30;4.50;;;;;;;31.33;22.86;99076.64;105520;1283;98699;-67
2022/05/02 10:19:26;;;;;;;10.80;4.50;;;;;;;31.00;22.62;99074.54;105485;1283;111704;-66
2022/05/02 10:22:00;;;;;;;9.00;4.80;;;;;;;30.52;22.54;99073.05;105461;1283;97935;-67
2022/05/02 10:24:47;;;;;;;7.60;4.50;;;;;;;29.97;22.50;99067.34;105457;1283;108699;-68
2022/05/02 10:27:18;;;;;;;9.70;4.30;;;;;;;29.57;22.36;99060.20;105531;1283;97906;-67
2022/05/02 10:29:57;;;;;;;12.40;4.30;;;;;;;29.19;22.32;99058.84;105637;1282;98022;-67
2022/05/02 10:32:35;;;;;;;10.00;4.30;;;;;;;28.72;22.26;99057.59;105589;1283;112045;-67
2022/05/02 10:35:11;;;;;;;10.70;4.40;;;;;;;28.36;22.02;99055.81;105537;1282;98342;-66
2022/05/02 10:37:43;;;;;;;9.90;4.10;;;;;;;28.00;22.01;99053.05;105647;1283;108537;-67
2022/05/02 10:40:13;;;;;;;;;;;;;;;27.68;22.05;99045.59;105549;1283;96297;-67
2022/05/02 10:42:59;;;;;;;8.10;3.50;;;;;;;27.33;21.96;99044.98;105597;1283;97898;-67
2022/05/02 10:45:27;;;;;;;8.10;3.60;;;;;;;27.22;22.21;99042.38;105622;1283;111781;-67
2022/05/02 10:48:17;;;;;;;9.30;4.20;;;;;;;27.11;21.87;99041.57;105653;1283;98006;-64
2022/05/02 10:51:24;;;;;;;13.40;4.50;;;;;;;26.48;21.66;99039.70;105599;1283;106651;-66
2022/05/02 10:54:29;;;;;;;7.40;4.00;;;;;;;25.81;21.77;99038.79;105083;1283;95386;-67
2022/05/02 10:57:30;;;;;;;12.20;4.90;;;;;;;25.63;21.84;99028.89;105561;1283;97887;-69
2022/05/02 11:00:23;;;;;;;11.00;4.30;;;;;;;25.44;21.71;99023.77;105575;1284;112008;-67
2022/05/02 11:03:06;;;;;;;9.30;5.00;;;;;;;25.15;21.69;99026.81;105653;1283;96254;-69
2022/05/02 11:05:51;;;;;;;8.40;4.40;;;;;;;24.87;21.80;99021.11;105637;1283;107613;-68
2022/05/02 11:08:29;;;;;;;10.50;4.30;;;;;;;24.68;21.80;99018.41;105623;1282;95244;-69
2022/05/02 11:11:03;;;;;;;9.80;4.10;;;;;;;24.53;21.88;99019.02;105636;1283;97833;-68
2022/05/02 11:13:39;;;;;;;9.50;3.90;;;;;;;24.47;21.81;99018.16;105414;1283;111440;-68
2022/05/02 11:16:25;;;;;;;10.60;4.70;;;;;;;24.31;21.69;99013.72;105546;1283;98195;-67
2022/05/02 11:22:31;;;;;;;10.90;4.30;;;;;;;24.08;21.88;99007.71;105620;1282;97880;-67
2022/05/02 11:25:15;;;;;;;8.20;4.40;;;;;;;24.04;21.94;99005.73;105612;1283;97073;-67
2022/05/02 11:28:01;;;;;;;10.40;4.00;;;;;;;24.13;22.05;99006.90;105434;1283;112051;-67
2022/05/02 11:30:50;;;;;;;11.00;4.70;;;;;;;24.22;22.19;98997.88;105706;1283;95376;-67
2022/05/02 11:33:27;;;;;;;7.90;3.80;;;;;;;24.31;22.03;98994.94;105371;1284;108398;-68
2022/05/02 11:36:02;;;;;;;8.20;4.20;;;;;;;24.28;22.15;98989.45;105657;1283;97925;-69
2022/05/02 11:39:02;;;;;;;10.60;4.40;;;;;;;24.26;22.26;98985.89;105672;1283;97980;-69
2022/05/02 11:41:33;;;;;;;8.40;4.20;;;;;;;24.21;22.23;98984.99;105540;1283;112061;-70
2022/05/02 11:44:16;;;;;;;9.00;4.50;;;;;;;24.05;22.27;98988.73;105592;1283;98017;-69
2022/05/02 11:46:54;;;;;;;11.10;4.30;;;;;;;23.90;22.20;98987.86;105609;1283;107109;-70
2022/05/02 11:50:03;;;;;;;11.00;4.60;;;;;;;23.90;22.46;98987.98;105469;1284;97997;-70
2022/05/02 11:52:36;;;;;;;12.60;4.50;;;;;;;23.99;22.63;98982.77;105567;1283;97871;-69
2022/05/02 11:55:08;;;;;;;9.50;4.40;;;;;;;24.06;22.62;98980.17;105347;1283;111469;-68
2022/05/02 11:57:52;;;;;;;12.00;4.60;;;;;;;24.05;22.53;98981.16;105402;1283;95323;-68
2022/05/02 12:00:20;;;;;;;9.10;4.30;;;;;;;24.06;22.67;98981.92;105281;1284;108465;-68
2022/05/02 12:03:02;;;;;;;7.60;3.80;;;;;;;24.12;22.80;98982.98;105666;1283;98000;-69
2022/05/02 12:05:41;;;;;;;9.40;4.50;;;;;;;24.25;22.89;98975.10;105589;1283;96475;-68
2022/05/02 12:08:30;;;;;;;10.80;4.20;;;;;;;24.36;22.75;98973.89;105544;1283;112822;-70
2022/05/02 12:11:07;;;;;;;12.00;4.10;;;;;;;24.43;22.84;98975.34;105340;1283;95321;-69
2022/05/02 12:13:46;;;;;;;9.40;4.30;;;;;;;24.45;23.01;98969.69;105469;1282;108297;-68
2022/05/02 12:16:20;;;;;;;8.60;3.90;;;;;;;24.46;22.86;98967.48;105600;1282;98696;-68
2022/05/02 12:18:53;;;;;;;11.00;4.00;;;;;;;24.43;22.76;98968.60;105601;1283;98993;-69
2022/05/02 12:21:31;;;;;;;8.50;4.50;;;;;;;24.34;22.83;98967.10;105443;1283;109790;-69